Time,TemperatureF,DewpointF,PressureIn,WindDirection,WindDirectionDegrees,WindSpeedMPH,WindSpeedGustMPH,Humidity,HourlyPrecipIn,Conditions,Clouds,dailyrainin,SoftwareType,DateUTC
2013-04-14 00:10:00,46.9,32.9,29.94,ESE,110,5.0,5.0,58,0.00,OVC,OVC,0.00,WeatherDisplay:10.37,2013-04-14 05:10:00,
2013-04-14 00:40:00,46.9,32.9,29.94,ESE,110,3.0,3.0,58,0.00,OVC,OVC,0.00,WeatherDisplay:10.37,2013-04-14 05:40:00,
2013-04-14 01:10:00,46.9,32.9,29.94,ESE,110,3.0,3.0,58,0.00,OVC,OVC,0.00,WeatherDisplay:10.37,2013-04-14 06:10:00,
2013-04-14 01:40:00,46.9,32.9,29.95,East,90,6.0,6.0,58,0.00,OVC,OVC,0.00,WeatherDisplay:10.37,2013-04-14 06:40:00,
2013-04-14 02:10:00,46.9,32.9,29.95,East,90,6.0,6.0,58,0.00,OVC,OVC,0.00,WeatherDisplay:10.37,2013-04-14 07:10:00,
2013-04-14 02:40:00,46.0,34.9,29.94,East,90,6.0,6.0,65,0.00,-RA,-RA,0.00,WeatherDisplay:10.37,2013-04-14 07:40:00,
2013-04-14 03:10:00,46.0,34.9,29.94,East,90,6.0,6.0,65,0.00,-RA,-RA,0.00,WeatherDisplay:10.37,2013-04-14 08:10:00,
2013-04-14 03:40:00,46.9,33.8,29.91,East,100,9.0,9.0,60,0.00,OVC,OVC,0.00,WeatherDisplay:10.37,2013-04-14 08:40:00,
2013-04-14 04:10:00,46.9,33.8,29.91,East,100,9.0,9.0,60,0.00,OVC,OVC,0.00,WeatherDisplay:10.37,2013-04-14 09:10:00,
2013-04-14 04:40:00,46.9,35.0,29.89,ESE,110,10.0,10.0,63,0.00,OVC,OVC,0.00,WeatherDisplay:10.37,2013-04-14 09:40:00,
2013-04-14 05:10:00,46.9,35.0,29.89,ESE,110,10.0,10.0,63,0.00,OVC,OVC,0.00,WeatherDisplay:10.37,2013-04-14 10:10:00,
2013-04-14 05:40:00,48.0,38.7,29.87,ESE,120,8.0,8.0,70,0.00,-RA,-RA,0.00,WeatherDisplay:10.37,2013-04-14 10:40:00,
2013-04-14 06:10:00,48.0,38.7,29.87,ESE,120,8.0,8.0,70,0.00,-RA,-RA,0.00,WeatherDisplay:10.37,2013-04-14 11:10:00,
2013-04-14 06:40:00,48.0,38.7,29.85,ESE,110,8.0,8.0,70,0.00,OVC,OVC,0.01,WeatherDisplay:10.37,2013-04-14 11:40:00,
2013-04-14 07:10:00,48.0,38.7,29.85,ESE,110,8.0,8.0,70,0.01,OVC,OVC,0.02,WeatherDisplay:10.37,2013-04-14 12:10:00,
2013-04-14 07:40:00,48.0,38.7,29.83,ESE,110,10.0,21.0,70,0.00,BKN,BKN,0.02,WeatherDisplay:10.37,2013-04-14 12:40:00,
2013-04-14 08:10:00,48.0,38.7,29.83,ESE,110,10.0,21.0,70,0.00,BKN,BKN,0.02,WeatherDisplay:10.37,2013-04-14 13:10:00,
2013-04-14 08:40:00,48.9,38.8,29.84,SE,130,16.0,25.0,68,0.00,OVC,OVC,0.02,WeatherDisplay:10.37,2013-04-14 13:40:00,
2013-04-14 09:10:00,48.9,38.8,29.84,SE,130,16.0,25.0,68,0.00,OVC,OVC,0.02,WeatherDisplay:10.37,2013-04-14 14:10:00,
2013-04-14 09:40:00,50.0,39.8,29.84,SE,130,9.0,9.0,68,0.00,OVC,OVC,0.02,WeatherDisplay:10.37,2013-04-14 14:40:00,
2013-04-14 10:10:00,50.0,39.8,29.84,SE,130,9.0,9.0,68,0.00,OVC,OVC,0.02,WeatherDisplay:10.37,2013-04-14 15:10:00,
2013-04-14 10:40:00,57.0,41.9,29.81,SSE,160,14.0,14.0,57,0.00,CLR,CLR,0.02,WeatherDisplay:10.37,2013-04-14 15:40:00,
2013-04-14 11:10:00,57.0,41.9,29.81,SSE,160,14.0,14.0,57,0.00,CLR,CLR,0.02,WeatherDisplay:10.37,2013-04-14 16:10:00,
2013-04-14 11:40:00,62.1,44.7,29.78,SSE,160,15.0,28.0,53,0.00,CLR,CLR,0.02,WeatherDisplay:10.37,2013-04-14 16:40:00,
2013-04-14 12:10:00,62.1,44.7,29.78,SSE,160,15.0,28.0,53,0.00,CLR,CLR,0.02,WeatherDisplay:10.37,2013-04-14 17:10:00,
2013-04-14 12:40:00,66.9,47.7,29.75,South,170,16.0,16.0,50,0.00,CLR,CLR,0.02,WeatherDisplay:10.37,2013-04-14 17:40:00,
2013-04-14 13:10:00,66.9,47.7,29.75,South,170,16.0,16.0,50,0.00,CLR,CLR,0.02,WeatherDisplay:10.37,2013-04-14 18:10:00,
2013-04-14 13:40:00,72.0,48.9,29.71,South,180,15.0,28.0,44,0.00,CLR,CLR,0.02,WeatherDisplay:10.37,2013-04-14 18:40:00,
2013-04-14 14:10:00,72.0,48.9,29.71,South,180,15.0,28.0,44,0.00,CLR,CLR,0.02,WeatherDisplay:10.37,2013-04-14 19:10:00,
2013-04-14 14:40:00,73.0,45.9,29.68,South,180,25.0,37.0,38,0.00,CLR,CLR,0.02,WeatherDisplay:10.37,2013-04-14 19:40:00,
2013-04-14 15:10:00,73.0,45.9,29.68,South,180,25.0,37.0,38,0.00,CLR,CLR,0.02,WeatherDisplay:10.37,2013-04-14 20:10:00,
2013-04-14 15:40:00,75.0,44.7,29.65,South,180,25.0,37.0,34,0.00,CLR,CLR,0.02,WeatherDisplay:10.37,2013-04-14 20:40:00,
2013-04-14 16:10:00,75.0,44.7,29.65,South,180,25.0,37.0,34,0.00,CLR,CLR,0.02,WeatherDisplay:10.37,2013-04-14 21:10:00,
2013-04-14 16:40:00,73.9,45.3,29.62,South,180,24.0,36.0,36,0.00,CLR,CLR,0.02,WeatherDisplay:10.37,2013-04-14 21:40:00,
2013-04-14 17:10:00,73.9,45.3,29.62,South,180,24.0,36.0,36,0.00,CLR,CLR,0.02,WeatherDisplay:10.37,2013-04-14 22:10:00,
2013-04-14 17:40:00,73.9,46.7,29.62,South,170,25.0,40.0,38,0.00,CLR,CLR,0.02,WeatherDisplay:10.37,2013-04-14 22:40:00,
2013-04-14 18:10:00,73.9,46.7,29.62,South,170,25.0,40.0,38,0.00,CLR,CLR,0.02,WeatherDisplay:10.37,2013-04-14 23:10:00,
2013-04-14 18:40:00,72.0,42.8,29.60,South,170,21.0,38.0,35,0.00,CLR,CLR,0.02,WeatherDisplay:10.37,2013-04-14 23:40:00,
2013-04-14 19:10:00,72.0,42.8,29.60,South,170,21.0,38.0,35,0.00,CLR,CLR,0.02,WeatherDisplay:10.37,2013-04-15 00:10:00,
2013-04-14 19:40:00,71.1,42.7,29.60,South,170,20.0,37.0,36,0.00,CLR,CLR,0.02,WeatherDisplay:10.37,2013-04-15 00:40:00,
2013-04-14 20:10:00,71.1,42.7,29.60,South,170,20.0,37.0,36,0.00,CLR,CLR,0.02,WeatherDisplay:10.37,2013-04-15 01:10:00,
2013-04-14 20:40:00,69.1,44.4,29.61,South,170,17.0,17.0,41,0.00,FEW,FEW,0.02,WeatherDisplay:10.37,2013-04-15 01:40:00,
2013-04-14 21:10:00,69.1,44.4,29.61,South,170,17.0,17.0,41,0.00,FEW,FEW,0.02,WeatherDisplay:10.37,2013-04-15 02:10:00,
2013-04-14 21:40:00,68.0,47.6,29.62,South,170,22.0,37.0,48,0.00,BKN,BKN,0.02,WeatherDisplay:10.37,2013-04-15 02:40:00,
2013-04-14 22:10:00,68.0,47.6,29.62,South,170,22.0,37.0,48,0.00,BKN,BKN,0.02,WeatherDisplay:10.37,2013-04-15 03:10:00,
2013-04-14 22:40:00,66.0,49.9,29.64,South,190,21.0,36.0,56,0.00,BKN,BKN,0.02,WeatherDisplay:10.37,2013-04-15 03:40:00,
2013-04-14 23:10:00,66.0,49.9,29.64,South,190,21.0,36.0,56,0.00,BKN,BKN,0.02,WeatherDisplay:10.37,2013-04-15 04:10:00,
2013-04-14 23:40:00,64.9,50.7,29.64,South,180,23.0,35.0,60,0.00,CLR,CLR,0.02,WeatherDisplay:10.37,2013-04-15 04:40:00,